Time;durP1;ratioP1;P1;durP2;ratioP2;P2;SDS_P1;SDS_P2;PMS_P1;PMS_P2;Temp;Humidity;BMP_temperature;BMP_pressure;BME280_temperature;BME280_humidity;BME280_pressure;Samples;Min_cycle;Max_cycle;Signal;HPM_P1;HPM_P2
2021/12/01 00:01:30;;;;;;;28.90;6.20;;;;;;;;;;4958582;29;20027;-31
2021/12/01 00:03:56;;;;;;;32.33;6.38;;;;;;;;;;4959004;29;20045;-30
2021/12/01 00:06:22;;;;;;;46.17;7.72;;;;;;;;;;4958709;29;20426;-30
2021/12/01 00:08:49;;;;;;;53.42;7.05;;;;;;;;;;4958243;28;20069;-29
2021/12/01 00:11:15;;;;;;;45.67;5.32;;;;;;;;;;4958363;29;20458;-31
2021/12/01 00:13:41;;;;;;;42.47;6.63;;;;;;;;;;4941456;29;20032;-30
2021/12/01 00:16:08;;;;;;;37.42;5.47;;;;;;;;;;4958294;29;20488;-29
2021/12/01 00:18:34;;;;;;;33.67;6.18;;;;;;;;;;4957968;28;20051;-31
2021/12/01 00:21:01;;;;;;;39.75;6.65;;;;;;;;;;4958469;29;20042;-29
2021/12/01 00:23:27;;;;;;;38.85;7.22;;;;;;;;;;4958663;29;20042;-31
2021/12/01 00:25:54;;;;;;;54.80;8.52;;;;;;;;;;4958138;29;20183;-30
2021/12/01 00:28:20;;;;;;;46.83;5.85;;;;;;;;;;4957974;28;20031;-31
2021/12/01 00:30:46;;;;;;;31.50;4.88;;;;;;;;;;4958815;29;20085;-31
2021/12/01 00:33:13;;;;;;;36.80;5.72;;;;;;;;;;4958028;29;20019;-29
2021/12/01 00:35:40;;;;;;;45.25;6.38;;;;;;;;;;4958231;29;20171;-30
2021/12/01 00:38:07;;;;;;;39.00;6.38;;;;;;;;;;4957890;28;20027;-30
2021/12/01 00:40:33;;;;;;;22.23;6.05;;;;;;;;;;4958169;29;20046;-32
2021/12/01 00:42:59;;;;;;;39.22;5.10;;;;;;;;;;4958077;29;20331;-29
2021/12/01 00:45:27;;;;;;;33.90;4.88;;;;;;;;;;4958574;29;20031;-29
2021/12/01 00:47:54;;;;;;;34.67;6.85;;;;;;;;;;4957571;28;20027;-30
2021/12/01 00:50:25;;;;;;;41.28;5.78;;;;;;;;;;4957979;29;20055;-29
2021/12/01 00:52:55;;;;;;;41.47;5.03;;;;;;;;;;4957884;29;20027;-28
2021/12/01 00:55:22;;;;;;;36.47;6.00;;;;;;;;;;4957896;29;20037;-29
2021/12/01 00:57:51;;;;;;;37.72;5.60;;;;;;;;;;4957723;28;20098;-31
2021/12/01 01:00:18;;;;;;;42.20;6.05;;;;;;;;;;4957533;29;20043;-30
2021/12/01 01:02:44;;;;;;;28.55;5.07;;;;;;;;;;4957337;28;20038;-29
2021/12/01 01:05:11;;;;;;;37.03;6.85;;;;;;;;;;4957468;29;20467;-30
2021/12/01 01:07:37;;;;;;;29.30;6.13;;;;;;;;;;4957459;28;20118;-31
2021/12/01 01:10:16;;;;;;;30.15;5.20;;;;;;;;;;4957635;29;20019;-32
2021/12/01 01:18:12;;;;;;;39.67;4.03;;;;;;;;;;4957157;28;20490;-31
2021/12/01 01:20:39;;;;;;;26.00;5.88;;;;;;;;;;4940198;29;20093;-30
2021/12/01 01:23:05;;;;;;;36.28;5.22;;;;;;;;;;4939926;29;20070;-31
2021/12/01 01:25:31;;;;;;;28.40;4.75;;;;;;;;;;4957268;29;20046;-29
2021/12/01 01:27:57;;;;;;;32.92;4.35;;;;;;;;;;4956797;28;20038;-31
2021/12/01 01:30:24;;;;;;;27.73;4.38;;;;;;;;;;4957151;29;20366;-29
2021/12/01 01:32:50;;;;;;;29.83;7.50;;;;;;;;;;4957059;29;20463;-32
2021/12/01 01:35:18;;;;;;;27.88;5.05;;;;;;;;;;4957379;29;20034;-31
2021/12/01 01:37:44;;;;;;;28.20;4.22;;;;;;;;;;4957262;28;20038;-30
2021/12/01 01:40:11;;;;;;;26.30;4.63;;;;;;;;;;4956779;29;20028;-30
2021/12/01 01:42:38;;;;;;;21.70;5.03;;;;;;;;;;4957031;29;20097;-30
2021/12/01 01:45:05;;;;;;;40.33;4.75;;;;;;;;;;4956994;29;20035;-30
2021/12/01 01:47:32;;;;;;;27.00;5.07;;;;;;;;;;4956736;28;20039;-32
2021/12/01 01:50:12;;;;;;;31.80;4.65;;;;;;;;;;4956668;29;20023;-30
2021/12/01 01:52:38;;;;;;;19.90;4.13;;;;;;;;;;4956572;29;20038;-31
2021/12/01 01:55:05;;;;;;;21.00;4.50;;;;;;;;;;4956597;29;20432;-31
2021/12/01 01:57:31;;;;;;;40.60;4.97;;;;;;;;;;4956911;28;20442;-30
2021/12/01 01:59:57;;;;;;;29.95;4.90;;;;;;;;;;4956539;29;20027;-30
2021/12/01 02:02:24;;;;;;;23.85;4.03;;;;;;;;;;4956457;29;20478;-33
2021/12/01 02:04:50;;;;;;;25.88;4.40;;;;;;;;;;4957267;29;20028;-31
2021/12/01 02:07:17;;;;;;;28.80;4.70;;;;;;;;;;4956660;28;20066;-31
2021/12/01 02:09:44;;;;;;;27.33;5.22;;;;;;;;;;4939486;29;20474;-32
2021/12/01 02:12:10;;;;;;;23.88;4.00;;;;;;;;;;4956451;29;20035;-32
2021/12/01 02:14:37;;;;;;;26.17;5.55;;;;;;;;;;4939390;29;20023;-30
2021/12/01 02:17:03;;;;;;;25.90;4.53;;;;;;;;;;4956229;28;20031;-30
2021/12/01 02:19:29;;;;;;;19.55;4.07;;;;;;;;;;4956176;29;20126;-30
2021/12/01 02:21:56;;;;;;;22.38;4.05;;;;;;;;;;4956292;29;20035;-30
2021/12/01 02:24:23;;;;;;;23.83;3.60;;;;;;;;;;4956583;29;20415;-31
2021/12/01 02:26:49;;;;;;;12.80;3.22;;;;;;;;;;4956404;28;20031;-30
2021/12/01 02:29:26;;;;;;;25.90;5.18;;;;;;;;;;4956381;29;20048;-30
2021/12/01 02:31:53;;;;;;;26.52;4.90;;;;;;;;;;4956504;29;20031;-29
2021/12/01 02:34:20;;;;;;;27.30;4.13;;;;;;;;;;4956218;29;20037;-31
2021/12/01 02:36:51;;;;;;;15.40;4.97;;;;;;;;;;4956365;28;20028;-31
2021/12/01 02:39:18;;;;;;;14.23;4.30;;;;;;;;;;4956569;29;20035;-29
2021/12/01 02:41:45;;;;;;;27.98;3.95;;;;;;;;;;4939396;29;20031;-30
2021/12/01 02:44:12;;;;;;;26.67;4.30;;;;;;;;;;4956223;29;20035;-30
2021/12/01 02:46:39;;;;;;;22.00;4.15;;;;;;;;;;4956448;29;20090;-31
2021/12/01 02:49:06;;;;;;;24.70;5.03;;;;;;;;;;4955961;28;20067;-29
2021/12/01 02:51:35;;;;;;;22.85;4.65;;;;;;;;;;4956112;29;20027;-30
2021/12/01 02:54:01;;;;;;;21.00;5.57;;;;;;;;;;4955984;29;20038;-30
2021/12/01 02:56:29;;;;;;;30.65;4.53;;;;;;;;;;4955999;29;20028;-31
2021/12/01 02:58:57;;;;;;;18.20;3.58;;;;;;;;;;4955920;28;20034;-29
2021/12/01 03:01:24;;;;;;;21.70;4.13;;;;;;;;;;4955992;29;20446;-29
2021/12/01 03:03:51;;;;;;;22.73;4.32;;;;;;;;;;4956416;29;20023;-30
2021/12/01 03:06:18;;;;;;;25.35;4.30;;;;;;;;;;4955883;29;20023;-31
2021/12/01 03:08:45;;;;;;;21.02;5.03;;;;;;;;;;4955992;28;20465;-32
2021/12/01 03:11:12;;;;;;;27.73;5.30;;;;;;;;;;4955817;29;20107;-30
2021/12/01 03:13:38;;;;;;;24.05;6.25;;;;;;;;;;4956223;29;20035;-31
2021/12/01 03:16:05;;;;;;;28.55;5.00;;;;;;;;;;4955993;29;20031;-30
2021/12/01 03:18:31;;;;;;;20.88;4.97;;;;;;;;;;4955445;28;20039;-30
2021/12/01 03:20:57;;;;;;;14.85;3.38;;;;;;;;;;4955650;29;20118;-29
2021/12/01 03:23:24;;;;;;;18.50;3.53;;;;;;;;;;4955665;29;20451;-31
2021/12/01 03:25:51;;;;;;;19.15;3.60;;;;;;;;;;4956899;28;20027;-31
2021/12/01 03:28:18;;;;;;;20.40;3.25;;;;;;;;;;4959005;28;20336;-29
2021/12/01 03:30:44;;;;;;;27.23;3.80;;;;;;;;;;4959326;29;20027;-29
2021/12/01 03:33:12;;;;;;;17.45;3.10;;;;;;;;;;4959294;29;20073;-31
2021/12/01 03:35:40;;;;;;;16.30;4.40;;;;;;;;;;4959297;29;20039;-30
2021/12/01 03:38:06;;;;;;;19.77;3.58;;;;;;;;;;4959025;28;20466;-28
2021/12/01 03:40:33;;;;;;;23.73;4.93;;;;;;;;;;4958954;29;20336;-30
2021/12/01 03:42:59;;;;;;;11.63;3.10;;;;;;;;;;4958842;29;20051;-29
2021/12/01 03:45:25;;;;;;;18.05;3.22;;;;;;;;;;4958880;29;20031;-31
2021/12/01 03:47:51;;;;;;;18.33;4.00;;;;;;;;;;4958616;28;20090;-31
2021/12/01 03:50:18;;;;;;;18.42;3.10;;;;;;;;;;4941761;29;20110;-31
2021/12/01 03:52:44;;;;;;;21.58;3.25;;;;;;;;;;4959192;29;20027;-31
2021/12/01 03:55:10;;;;;;;12.80;3.28;;;;;;;;;;4958605;29;20118;-31
2021/12/01 03:57:37;;;;;;;27.50;3.90;;;;;;;;;;4958777;28;20035;-31
2021/12/01 04:00:05;;;;;;;12.13;3.13;;;;;;;;;;4959184;29;20093;-30
2021/12/01 04:02:32;;;;;;;17.13;4.25;;;;;;;;;;4958703;29;20051;-30
2021/12/01 04:04:58;;;;;;;15.35;3.85;;;;;;;;;;4958621;29;20027;-30
2021/12/01 04:07:24;;;;;;;14.60;3.15;;;;;;;;;;4958408;28;20477;-29
2021/12/01 04:09:51;;;;;;;17.10;3.72;;;;;;;;;;4958322;29;20023;-30
2021/12/01 04:12:17;;;;;;;20.17;4.15;;;;;;;;;;4958556;29;20110;-31
2021/12/01 04:14:44;;;;;;;20.20;3.47;;;;;;;;;;4958213;29;20023;-31
2021/12/01 04:17:10;;;;;;;14.85;3.00;;;;;;;;;;4958331;28;20111;-32
2021/12/01 04:19:36;;;;;;;12.90;3.42;;;;;;;;;;4944873;29;20055;-31
2021/12/01 04:22:03;;;;;;;18.13;3.40;;;;;;;;;;4958373;29;20027;-32
2021/12/01 04:24:30;;;;;;;19.63;3.30;;;;;;;;;;4958160;29;20487;-30
2021/12/01 04:26:57;;;;;;;15.60;2.88;;;;;;;;;;4958332;28;20031;-30
2021/12/01 04:29:24;;;;;;;16.55;2.72;;;;;;;;;;4957919;29;20558;-30
2021/12/01 04:31:50;;;;;;;17.55;3.80;;;;;;;;;;4958320;29;20418;-31
2021/12/01 04:34:17;;;;;;;13.35;2.53;;;;;;;;;;4958273;29;20023;-30
2021/12/01 04:36:44;;;;;;;16.83;3.60;;;;;;;;;;4957615;28;20031;-33
2021/12/01 04:39:13;;;;;;;11.02;2.72;;;;;;;;;;4957537;28;20039;-29
2021/12/01 04:41:51;;;;;;;15.15;3.17;;;;;;;;;;4958046;29;20359;-29
2021/12/01 04:44:19;;;;;;;17.95;3.58;;;;;;;;;;4957749;29;20058;-30
2021/12/01 04:46:47;;;;;;;17.65;4.30;;;;;;;;;;4957680;29;20110;-30
2021/12/01 04:49:17;;;;;;;12.38;3.80;;;;;;;;;;4957535;29;20031;-29
2021/12/01 04:51:45;;;;;;;17.65;5.18;;;;;;;;;;4958168;29;20034;-30
2021/12/01 04:54:11;;;;;;;12.18;3.38;;;;;;;;;;4940705;29;20024;-29
2021/12/01 04:56:38;;;;;;;16.58;3.42;;;;;;;;;;4957524;29;20093;-28
2021/12/01 04:59:05;;;;;;;17.15;5.03;;;;;;;;;;4958065;28;20031;-30
2021/12/01 05:01:33;;;;;;;13.27;2.85;;;;;;;;;;4940493;29;20035;-31
2021/12/01 05:03:59;;;;;;;8.35;3.28;;;;;;;;;;4957754;29;20027;-30
2021/12/01 05:06:26;;;;;;;15.13;3.05;;;;;;;;;;4957319;29;20055;-30
2021/12/01 05:08:52;;;;;;;14.10;3.33;;;;;;;;;;4957359;28;20098;-29
2021/12/01 05:11:18;;;;;;;16.70;3.10;;;;;;;;;;4957195;29;20415;-31
2021/12/01 05:13:45;;;;;;;7.88;3.13;;;;;;;;;;4956825;29;20086;-29
2021/12/01 05:16:11;;;;;;;14.57;3.80;;;;;;;;;;4957424;29;20106;-30
2021/12/01 05:18:37;;;;;;;36.85;4.80;;;;;;;;;;4956888;28;20378;-31
2021/12/01 05:21:04;;;;;;;30.67;4.07;;;;;;;;;;4957109;29;20094;-30
2021/12/01 05:23:30;;;;;;;21.73;3.60;;;;;;;;;;4957244;29;20039;-31
2021/12/01 05:25:56;;;;;;;32.15;4.68;;;;;;;;;;4957015;29;20027;-31
2021/12/01 05:28:23;;;;;;;14.02;2.45;;;;;;;;;;4956611;28;20050;-32
2021/12/01 05:30:49;;;;;;;13.60;4.45;;;;;;;;;;4957046;29;20030;-30
2021/12/01 05:33:16;;;;;;;17.13;3.33;;;;;;;;;;4956970;29;20058;-30
2021/12/01 05:35:43;;;;;;;16.23;3.97;;;;;;;;;;4956648;29;20030;-31
2021/12/01 05:38:10;;;;;;;18.63;3.45;;;;;;;;;;4956592;28;20462;-30
2021/12/01 05:40:36;;;;;;;18.10;2.67;;;;;;;;;;4956502;29;20038;-30
2021/12/01 05:43:03;;;;;;;14.65;3.05;;;;;;;;;;4939730;29;20371;-30
2021/12/01 05:45:29;;;;;;;22.77;4.72;;;;;;;;;;4956687;29;20090;-32
2021/12/01 05:47:55;;;;;;;18.90;3.17;;;;;;;;;;4956298;28;20031;-30
2021/12/01 05:50:22;;;;;;;23.83;3.50;;;;;;;;;;4956831;29;20043;-33
2021/12/01 05:52:48;;;;;;;28.05;3.83;;;;;;;;;;4956580;29;20469;-31
2021/12/01 05:55:15;;;;;;;16.40;4.55;;;;;;;;;;4956553;29;20042;-32
2021/12/01 05:57:41;;;;;;;21.50;5.38;;;;;;;;;;4956564;28;20039;-32
2021/12/01 06:00:09;;;;;;;19.00;2.90;;;;;;;;;;4956423;29;20525;-32
2021/12/01 06:02:36;;;;;;;14.93;3.17;;;;;;;;;;4956358;29;20046;-32
2021/12/01 06:05:02;;;;;;;26.15;3.22;;;;;;;;;;4956577;29;20455;-34
2021/12/01 06:07:28;;;;;;;19.83;2.70;;;;;;;;;;4956104;28;20075;-31
2021/12/01 06:09:54;;;;;;;30.08;3.53;;;;;;;;;;4956375;29;20027;-30
2021/12/01 06:12:21;;;;;;;35.10;3.42;;;;;;;;;;4956218;29;20064;-30
2021/12/01 06:14:48;;;;;;;19.80;3.67;;;;;;;;;;4956186;29;20024;-29
2021/12/01 06:17:15;;;;;;;26.58;3.35;;;;;;;;;;4939583;29;20086;-29
2021/12/01 06:19:41;;;;;;;20.63;4.95;;;;;;;;;;4955890;29;20051;-31
2021/12/01 06:22:07;;;;;;;15.38;2.88;;;;;;;;;;4956167;29;20082;-30
2021/12/01 06:24:35;;;;;;;21.38;3.08;;;;;;;;;;4956624;29;20035;-29
2021/12/01 06:27:02;;;;;;;26.88;3.35;;;;;;;;;;4956119;28;20055;-33
2021/12/01 06:29:28;;;;;;;34.63;3.65;;;;;;;;;;4955928;29;20056;-30
2021/12/01 06:31:54;;;;;;;26.95;4.18;;;;;;;;;;4956383;29;20110;-30
2021/12/01 06:34:21;;;;;;;17.50;2.45;;;;;;;;;;4955913;29;20027;-31
2021/12/01 06:36:47;;;;;;;25.52;4.03;;;;;;;;;;4956365;28;20035;-32
2021/12/01 06:39:13;;;;;;;29.80;4.00;;;;;;;;;;4955789;29;20451;-31
2021/12/01 06:41:39;;;;;;;22.90;3.97;;;;;;;;;;4955814;29;20418;-29
2021/12/01 06:44:06;;;;;;;17.75;3.90;;;;;;;;;;4955887;29;20489;-30
2021/12/01 06:46:32;;;;;;;22.70;3.38;;;;;;;;;;4956206;29;20035;-31
2021/12/01 06:48:58;;;;;;;11.55;2.83;;;;;;;;;;4955780;28;20493;-31
2021/12/01 06:51:25;;;;;;;27.08;4.78;;;;;;;;;;4956097;29;20167;-32
2021/12/01 06:53:51;;;;;;;27.80;4.35;;;;;;;;;;4939686;29;20027;-30
2021/12/01 06:56:18;;;;;;;20.23;3.45;;;;;;;;;;4955893;29;20482;-30
2021/12/01 06:58:45;;;;;;;20.13;3.38;;;;;;;;;;4956201;28;20067;-31
2021/12/01 07:01:12;;;;;;;29.75;5.55;;;;;;;;;;4957852;28;20031;-31
2021/12/01 07:03:39;;;;;;;23.20;3.20;;;;;;;;;;4959405;29;20031;-31
2021/12/01 07:06:05;;;;;;;31.08;4.35;;;;;;;;;;4959384;29;20370;-31
2021/12/01 07:08:32;;;;;;;11.50;2.63;;;;;;;;;;4959247;28;20039;-31
2021/12/01 07:10:58;;;;;;;18.92;3.65;;;;;;;;;;4959487;29;20027;-32
2021/12/01 07:13:25;;;;;;;27.05;3.40;;;;;;;;;;4959955;29;20075;-31
2021/12/01 07:15:51;;;;;;;25.65;4.25;;;;;;;;;;4959276;29;20039;-30
2021/12/01 07:18:17;;;;;;;30.20;3.72;;;;;;;;;;4959044;28;20031;-30
2021/12/01 07:20:45;;;;;;;27.77;4.30;;;;;;;;;;4959160;29;20039;-31
2021/12/01 07:23:12;;;;;;;33.70;4.50;;;;;;;;;;4959133;29;20114;-30
2021/12/01 07:25:38;;;;;;;20.73;3.45;;;;;;;;;;4942072;29;20068;-31
2021/12/01 07:28:04;;;;;;;17.58;4.05;;;;;;;;;;4958627;28;20031;-32
2021/12/01 07:30:32;;;;;;;28.88;3.63;;;;;;;;;;4958918;29;20031;-33
2021/12/01 07:32:58;;;;;;;23.23;3.50;;;;;;;;;;4958875;29;20331;-31
2021/12/01 07:35:24;;;;;;;19.77;3.33;;;;;;;;;;4959013;29;20366;-31
2021/12/01 07:37:53;;;;;;;21.70;3.25;;;;;;;;;;4958984;28;20039;-31
2021/12/01 07:40:19;;;;;;;25.45;4.55;;;;;;;;;;4958931;29;20117;-33
2021/12/01 07:42:45;;;;;;;27.48;3.63;;;;;;;;;;4958512;29;20214;-32
2021/12/01 07:45:12;;;;;;;27.50;4.60;;;;;;;;;;4958608;29;20122;-34
2021/12/01 07:47:38;;;;;;;39.88;3.92;;;;;;;;;;4958508;28;20049;-31
2021/12/01 07:50:05;;;;;;;29.10;5.80;;;;;;;;;;4958230;29;20442;-32
2021/12/01 07:52:32;;;;;;;21.13;3.90;;;;;;;;;;4958538;29;20019;-32
2021/12/01 07:54:58;;;;;;;12.82;3.65;;;;;;;;;;4958225;29;20446;-32
2021/12/01 07:57:25;;;;;;;23.42;4.97;;;;;;;;;;4958145;28;20122;-31
2021/12/01 07:59:51;;;;;;;41.50;5.63;;;;;;;;;;4958441;29;20102;-30
2021/12/01 08:02:17;;;;;;;32.83;3.75;;;;;;;;;;4941424;29;20035;-31
2021/12/01 08:04:43;;;;;;;45.92;6.10;;;;;;;;;;4958111;29;20023;-31
2021/12/01 08:07:09;;;;;;;39.28;3.75;;;;;;;;;;4957755;28;20031;-30
2021/12/01 08:09:36;;;;;;;29.35;4.45;;;;;;;;;;4958663;29;20023;-30
2021/12/01 08:12:02;;;;;;;34.10;3.83;;;;;;;;;;4958024;28;20459;-32
2021/12/01 08:14:29;;;;;;;39.38;4.25;;;;;;;;;;4941097;29;20031;-30
2021/12/01 08:16:55;;;;;;;27.70;3.75;;;;;;;;;;4958144;28;20070;-31
2021/12/01 08:19:22;;;;;;;27.45;6.20;;;;;;;;;;4958073;29;20079;-31
2021/12/01 08:21:50;;;;;;;49.47;5.35;;;;;;;;;;4958253;29;20038;-31
2021/12/01 08:24:17;;;;;;;54.63;6.03;;;;;;;;;;4958026;29;20458;-32
2021/12/01 08:26:44;;;;;;;33.47;3.63;;;;;;;;;;4958130;29;20525;-29
2021/12/01 08:29:11;;;;;;;26.17;4.13;;;;;;;;;;4957908;28;20031;-32
2021/12/01 08:31:38;;;;;;;30.35;4.50;;;;;;;;;;4958359;29;20050;-31
2021/12/01 08:34:04;;;;;;;17.67;5.88;;;;;;;;;;4957819;29;20415;-31
2021/12/01 08:36:30;;;;;;;27.42;3.15;;;;;;;;;;4957619;29;20023;-32
2021/12/01 08:38:57;;;;;;;32.70;4.45;;;;;;;;;;4957716;28;20098;-34
2021/12/01 08:41:23;;;;;;;32.20;4.95;;;;;;;;;;4957452;29;20138;-34
2021/12/01 08:43:49;;;;;;;23.58;4.63;;;;;;;;;;4940471;29;20035;-32
2021/12/01 08:46:16;;;;;;;29.20;3.53;;;;;;;;;;4957450;29;20081;-30
2021/12/01 08:48:43;;;;;;;35.10;6.07;;;;;;;;;;4956966;28;20031;-31
2021/12/01 08:51:09;;;;;;;25.35;3.67;;;;;;;;;;4957184;29;20031;-30
2021/12/01 08:53:39;;;;;;;40.60;4.53;;;;;;;;;;4956901;29;20362;-32
2021/12/01 08:56:06;;;;;;;36.10;4.07;;;;;;;;;;4940059;29;20035;-31
2021/12/01 08:58:32;;;;;;;45.13;7.97;;;;;;;;;;4956877;28;20083;-31
2021/12/01 09:00:59;;;;;;;32.65;3.60;;;;;;;;;;4939986;29;20035;-33
2021/12/01 09:03:26;;;;;;;50.85;7.18;;;;;;;;;;4957062;29;20027;-31
2021/12/01 09:05:53;;;;;;;42.75;5.20;;;;;;;;;;4956840;29;20031;-33
2021/12/01 09:08:20;;;;;;;29.52;4.20;;;;;;;;;;4956986;28;20308;-33
2021/12/01 09:10:48;;;;;;;50.78;5.22;;;;;;;;;;4956799;29;20494;-31
2021/12/01 09:13:15;;;;;;;38.75;4.90;;;;;;;;;;4939838;29;20358;-33
2021/12/01 09:15:42;;;;;;;29.80;4.40;;;;;;;;;;4957091;29;20023;-32
2021/12/01 09:18:09;;;;;;;35.97;4.57;;;;;;;;;;4956851;28;20037;-32
2021/12/01 09:20:35;;;;;;;35.08;6.55;;;;;;;;;;4939424;29;20494;-31
2021/12/01 09:23:03;;;;;;;43.10;4.82;;;;;;;;;;4956130;28;20098;-31
2021/12/01 09:25:29;;;;;;;23.95;3.75;;;;;;;;;;4956716;29;20059;-31
2021/12/01 09:27:56;;;;;;;31.77;5.28;;;;;;;;;;4956790;28;20058;-31
2021/12/01 09:30:22;;;;;;;40.25;7.07;;;;;;;;;;4956608;29;20443;-31
2021/12/01 09:32:48;;;;;;;36.90;4.88;;;;;;;;;;4940075;29;20027;-31
2021/12/01 09:35:15;;;;;;;52.83;4.63;;;;;;;;;;4956842;29;20077;-32
2021/12/01 09:37:41;;;;;;;32.65;4.25;;;;;;;;;;4956403;28;20038;-35
2021/12/01 09:40:13;;;;;;;42.05;4.63;;;;;;;;;;4956703;29;20110;-31
2021/12/01 09:42:42;;;;;;;24.77;4.95;;;;;;;;;;4956492;29;20031;-33
2021/12/01 09:45:09;;;;;;;40.78;4.63;;;;;;;;;;4956700;29;20142;-31
2021/12/01 09:47:36;;;;;;;29.48;4.88;;;;;;;;;;4956121;28;20418;-30
2021/12/01 09:50:03;;;;;;;19.73;3.85;;;;;;;;;;4956558;29;20510;-30
2021/12/01 09:52:29;;;;;;;35.65;4.30;;;;;;;;;;4956198;29;20019;-31
2021/12/01 09:54:55;;;;;;;33.08;4.85;;;;;;;;;;4956570;29;20027;-33
2021/12/01 09:57:21;;;;;;;29.17;4.03;;;;;;;;;;4939573;29;20027;-31
2021/12/01 09:59:48;;;;;;;35.83;4.30;;;;;;;;;;4956311;29;20039;-30
2021/12/01 10:02:14;;;;;;;44.53;5.65;;;;;;;;;;4956608;29;20024;-30
2021/12/01 10:04:40;;;;;;;30.65;3.90;;;;;;;;;;4956353;29;20102;-31
2021/12/01 10:07:17;;;;;;;35.97;5.05;;;;;;;;;;4956144;28;20035;-30
2021/12/01 10:09:45;;;;;;;42.80;5.60;;;;;;;;;;4956648;29;20054;-31
2021/12/01 10:12:12;;;;;;;21.33;3.95;;;;;;;;;;4956273;29;20422;-30
2021/12/01 10:14:38;;;;;;;34.20;5.28;;;;;;;;;;4956115;29;20027;-32
2021/12/01 10:17:04;;;;;;;50.00;6.68;;;;;;;;;;4956270;28;20019;-31
2021/12/01 10:19:30;;;;;;;30.83;5.30;;;;;;;;;;4955877;29;20173;-30
2021/12/01 10:21:57;;;;;;;29.60;4.40;;;;;;;;;;4956146;29;20090;-31
2021/12/01 10:24:30;;;;;;;34.15;4.93;;;;;;;;;;4955892;29;20033;-29
2021/12/01 10:26:58;;;;;;;40.80;5.78;;;;;;;;;;4956111;28;20027;-31
2021/12/01 10:29:35;;;;;;;33.40;4.05;;;;;;;;;;4956229;29;20027;-31
2021/12/01 10:32:02;;;;;;;26.48;5.20;;;;;;;;;;4956076;29;20027;-32
2021/12/01 10:34:31;;;;;;;45.03;4.93;;;;;;;;;;4955974;28;20046;-31
2021/12/01 10:37:10;;;;;;;31.52;5.40;;;;;;;;;;4959187;28;20482;-32
2021/12/01 10:39:41;;;;;;;23.67;4.45;;;;;;;;;;4959707;29;20031;-32
2021/12/01 10:42:08;;;;;;;21.85;4.10;;;;;;;;;;4960008;29;20458;-30
2021/12/01 10:44:35;;;;;;;37.53;5.07;;;;;;;;;;4959661;29;20113;-31
2021/12/01 10:47:12;;;;;;;32.05;4.80;;;;;;;;;;4959679;28;20042;-30
2021/12/01 10:49:40;;;;;;;37.35;5.47;;;;;;;;;;4959479;29;20035;-31
2021/12/01 10:52:08;;;;;;;23.65;4.45;;;;;;;;;;4959352;29;20023;-29
2021/12/01 10:54:35;;;;;;;24.73;3.88;;;;;;;;;;4942627;29;20223;-30
2021/12/01 10:57:21;;;;;;;25.48;4.07;;;;;;;;;;4959362;28;20023;-31
2021/12/01 10:59:49;;;;;;;42.00;4.95;;;;;;;;;;4959918;29;20028;-31
2021/12/01 11:02:16;;;;;;;33.15;5.60;;;;;;;;;;4959629;29;20107;-30
2021/12/01 11:04:46;;;;;;;33.92;5.72;;;;;;;;;;4959287;29;20144;-30
2021/12/01 11:07:29;;;;;;;24.38;4.25;;;;;;;;;;4942239;29;20027;-31
2021/12/01 11:10:14;;;;;;;25.10;3.95;;;;;;;;;;4959331;29;20035;-31
2021/12/01 11:12:41;;;;;;;42.05;3.55;;;;;;;;;;4942417;29;20035;-30
2021/12/01 11:15:20;;;;;;;32.97;6.25;;;;;;;;;;4959292;29;20037;-31
2021/12/01 11:17:48;;;;;;;35.97;4.78;;;;;;;;;;4959380;28;20114;-32
2021/12/01 11:20:38;;;;;;;29.63;3.28;;;;;;;;;;4959009;29;20403;-32
2021/12/01 11:23:07;;;;;;;33.53;7.05;;;;;;;;;;4947196;29;20110;-31
2021/12/01 11:25:36;;;;;;;29.35;4.85;;;;;;;;;;4959214;29;20055;-29
2021/12/01 11:28:02;;;;;;;43.13;7.82;;;;;;;;;;4958496;28;20053;-30
2021/12/01 11:30:29;;;;;;;28.95;6.50;;;;;;;;;;4959081;29;20078;-29
2021/12/01 11:32:55;;;;;;;24.35;3.90;;;;;;;;;;4958782;29;20046;-30
2021/12/01 11:35:23;;;;;;;27.95;4.68;;;;;;;;;;4958725;29;20078;-30
2021/12/01 11:37:55;;;;;;;36.20;5.45;;;;;;;;;;4941452;29;20422;-30
2021/12/01 11:40:24;;;;;;;41.95;4.65;;;;;;;;;;4958707;29;20023;-31
2021/12/01 11:42:51;;;;;;;35.65;5.03;;;;;;;;;;4958590;29;20031;-30
2021/12/01 11:45:17;;;;;;;31.45;3.72;;;;;;;;;;4941895;29;20031;-33
2021/12/01 11:47:47;;;;;;;59.65;7.25;;;;;;;;;;4957894;28;20027;-31
2021/12/01 11:50:17;;;;;;;44.80;4.88;;;;;;;;;;4958630;29;20106;-28
2021/12/01 11:52:51;;;;;;;43.63;6.88;;;;;;;;;;4958243;29;20090;-29
2021/12/01 11:55:37;;;;;;;50.75;7.03;;;;;;;;;;4958405;29;20027;-31
2021/12/01 11:58:04;;;;;;;28.92;4.82;;;;;;;;;;4941231;29;20474;-30
2021/12/01 12:00:48;;;;;;;27.38;5.72;;;;;;;;;;4958557;29;20031;-30
2021/12/01 12:03:25;;;;;;;24.52;3.67;;;;;;;;;;4942044;29;20031;-31
2021/12/01 12:06:14;;;;;;;29.08;5.32;;;;;;;;;;4957872;29;20035;-32
2021/12/01 12:08:56;;;;;;;22.27;4.38;;;;;;;;;;4945615;28;20375;-31
2021/12/01 12:11:22;;;;;;;;;;;;;;;;;;4941499;29;20028;-31
2021/12/01 12:13:59;;;;;;;28.05;4.90;;;;;;;;;;4957823;29;20467;-32
2021/12/01 12:16:25;;;;;;;33.45;4.28;;;;;;;;;;4959198;29;20455;-30
2021/12/01 12:18:53;;;;;;;29.15;3.83;;;;;;;;;;4941101;29;20528;-31
2021/12/01 12:21:27;;;;;;;33.33;3.63;;;;;;;;;;4958589;29;20063;-31
2021/12/01 12:23:53;;;;;;;26.65;3.63;;;;;;;;;;4958540;29;20453;-31
2021/12/01 12:26:33;;;;;;;39.97;5.00;;;;;;;;;;4958185;29;20035;-31
2021/12/01 12:29:25;;;;;;;25.45;3.25;;;;;;;;;;4957824;28;20058;-31
2021/12/01 12:31:51;;;;;;;;;;;;;;;;;;4947582;29;20031;-31
2021/12/01 12:34:20;;;;;;;21.20;3.17;;;;;;;;;;4957991;29;20334;-32
2021/12/01 12:36:46;;;;;;;27.33;3.97;;;;;;;;;;4957758;29;20050;-31
2021/12/01 12:39:14;;;;;;;37.03;4.45;;;;;;;;;;4957907;28;20051;-31
2021/12/01 12:41:56;;;;;;;21.58;4.25;;;;;;;;;;4957646;29;20098;-32
2021/12/01 12:44:32;;;;;;;27.17;4.32;;;;;;;;;;4957688;29;20042;-30
2021/12/01 12:47:03;;;;;;;20.33;4.60;;;;;;;;;;4940438;28;20038;-30
2021/12/01 12:49:40;;;;;;;34.47;4.07;;;;;;;;;;4940382;29;20348;-32
2021/12/01 12:52:24;;;;;;;22.90;4.35;;;;;;;;;;4957468;29;20030;-31
2021/12/01 12:55:11;;;;;;;31.52;4.38;;;;;;;;;;4957509;29;20035;-32
2021/12/01 12:57:48;;;;;;;38.72;5.22;;;;;;;;;;4955509;28;20038;-31
2021/12/01 13:00:58;;;;;;;31.17;5.00;;;;;;;;;;4957780;29;20167;-30
2021/12/01 13:03:24;;;;;;;49.45;6.10;;;;;;;;;;4861422;29;20114;-31
2021/12/01 13:05:51;;;;;;;49.45;6.40;;;;;;;;;;4861695;29;20405;-31
2021/12/01 13:08:35;;;;;;;40.55;4.25;;;;;;;;;;4910426;29;20043;-31
2021/12/01 13:11:02;;;;;;;46.17;4.88;;;;;;;;;;4957415;29;20023;-31
2021/12/01 13:13:38;;;;;;;47.90;4.88;;;;;;;;;;4957728;29;20039;-33
2021/12/01 13:16:06;;;;;;;62.00;6.05;;;;;;;;;;4940119;29;20515;-33
2021/12/01 13:18:34;;;;;;;69.75;6.15;;;;;;;;;;4940023;29;20119;-30
2021/12/01 13:21:03;;;;;;;57.20;7.35;;;;;;;;;;4957512;29;20031;-31
2021/12/01 13:23:37;;;;;;;28.90;4.22;;;;;;;;;;4956831;29;20059;-32
2021/12/01 13:26:06;;;;;;;34.13;4.18;;;;;;;;;;4956844;29;20106;-31
2021/12/01 13:28:36;;;;;;;31.10;4.03;;;;;;;;;;4957032;28;20090;-31
2021/12/01 13:31:08;;;;;;;35.10;5.18;;;;;;;;;;4956807;29;20031;-31
2021/12/01 13:33:35;;;;;;;32.78;4.75;;;;;;;;;;4939998;29;20051;-31
2021/12/01 13:36:14;;;;;;;57.70;5.35;;;;;;;;;;4956724;29;20110;-31
2021/12/01 13:38:41;;;;;;;48.00;5.20;;;;;;;;;;4939893;29;20056;-30
2021/12/01 13:41:12;;;;;;;42.20;4.00;;;;;;;;;;4956590;29;20400;-31
2021/12/01 13:43:39;;;;;;;25.80;3.72;;;;;;;;;;4956537;29;20069;-30
2021/12/01 13:46:10;;;;;;;48.05;5.82;;;;;;;;;;4956553;29;20070;-30
2021/12/01 13:48:37;;;;;;;35.22;4.38;;;;;;;;;;4956409;28;20027;-34
2021/12/01 13:51:42;;;;;;;38.80;5.82;;;;;;;;;;4956892;29;20023;-32
2021/12/01 13:54:34;;;;;;;31.80;3.90;;;;;;;;;;4955186;29;20435;-33
2021/12/01 13:57:06;;;;;;;47.80;5.90;;;;;;;;;;4939333;28;20027;-30
2021/12/01 13:59:43;;;;;;;34.15;5.32;;;;;;;;;;4956341;29;20066;-29
2021/12/01 14:02:10;;;;;;;54.60;10.23;;;;;;;;;;4956439;29;20057;-30
2021/12/01 14:04:37;;;;;;;28.38;5.07;;;;;;;;;;4956626;29;20111;-32
2021/12/01 14:07:04;;;;;;;33.65;5.22;;;;;;;;;;4956264;28;20055;-31
2021/12/01 14:09:53;;;;;;;38.30;5.60;;;;;;;;;;4956009;28;20070;-30
2021/12/01 14:12:36;;;;;;;30.58;4.65;;;;;;;;;;4956243;29;20439;-29
2021/12/01 14:15:02;;;;;;;38.42;5.72;;;;;;;;;;4956015;29;20049;-30
2021/12/01 14:17:29;;;;;;;26.27;4.78;;;;;;;;;;4956078;28;20038;-30
2021/12/01 14:19:57;;;;;;;33.95;6.60;;;;;;;;;;4938844;29;20039;-31
2021/12/01 14:22:24;;;;;;;43.83;5.95;;;;;;;;;;4955833;29;20034;-30
2021/12/01 14:24:52;;;;;;;47.67;4.78;;;;;;;;;;4955902;29;20077;-33
2021/12/01 14:27:27;;;;;;;37.33;5.40;;;;;;;;;;4955601;28;20491;-29
2021/12/01 14:29:56;;;;;;;33.55;4.47;;;;;;;;;;4955930;29;20038;-30
2021/12/01 14:32:24;;;;;;;41.03;4.65;;;;;;;;;;4956393;29;20094;-31
2021/12/01 14:34:50;;;;;;;38.33;4.57;;;;;;;;;;4938890;29;20027;-32
2021/12/01 14:37:17;;;;;;;43.78;6.60;;;;;;;;;;4955916;28;20367;-31
2021/12/01 14:39:43;;;;;;;49.00;5.07;;;;;;;;;;4955760;29;20443;-30
2021/12/01 14:42:10;;;;;;;43.53;6.07;;;;;;;;;;4955734;29;20031;-30
2021/12/01 14:44:37;;;;;;;41.70;5.95;;;;;;;;;;4955649;29;20032;-33